createdAt,value
2022-09-06T00:00:59.595Z,18.60
2022-09-06T00:03:29.504Z,18.60
2022-09-06T00:05:56.183Z,18.60
2022-09-06T00:08:22.936Z,18.60
2022-09-06T00:11:01.099Z,18.60
2022-09-06T00:13:28.487Z,18.60
2022-09-06T00:15:55.306Z,18.50
2022-09-06T00:18:22.456Z,18.50
2022-09-06T00:20:49.274Z,18.50
2022-09-06T00:23:16.067Z,18.50
2022-09-06T00:25:42.780Z,18.50
2022-09-06T00:28:09.478Z,18.50
2022-09-06T00:30:36.292Z,18.40
2022-09-06T00:33:03.019Z,18.40
2022-09-06T00:35:29.796Z,18.40
2022-09-06T00:38:01.206Z,18.40
2022-09-06T00:40:30.144Z,18.30
2022-09-06T00:42:57.467Z,18.30
2022-09-06T00:45:27.312Z,18.30
2022-09-06T00:47:54.559Z,18.30
2022-09-06T00:50:21.311Z,18.30
2022-09-06T00:52:50.033Z,18.30
2022-09-06T00:55:17.524Z,18.30
2022-09-06T00:57:46.422Z,18.30
2022-09-06T01:00:13.592Z,18.30
2022-09-06T01:02:40.453Z,18.20
2022-09-06T01:05:07.625Z,18.20
2022-09-06T01:07:56.726Z,18.20
2022-09-06T01:10:32.595Z,18.20
2022-09-06T01:13:36.947Z,18.20
2022-09-06T01:16:19.277Z,18.10
2022-09-06T01:18:54.730Z,18.10
2022-09-06T01:21:50.032Z,18.10
2022-09-06T01:24:30.835Z,18.10
2022-09-06T01:27:39.420Z,18.10
2022-09-06T01:30:09.094Z,18.10
2022-09-06T01:32:49.294Z,18.10
2022-09-06T01:35:41.478Z,18.10
2022-09-06T01:38:08.873Z,18.10
2022-09-06T01:40:36.495Z,18.10
2022-09-06T01:43:10.635Z,18.10
2022-09-06T01:46:00.896Z,18.10
2022-09-06T01:48:59.233Z,18.10
2022-09-06T01:52:02.289Z,18.10
2022-09-06T01:54:52.441Z,18.00
2022-09-06T01:57:43.106Z,18.00
2022-09-06T02:00:13.415Z,18.00
2022-09-06T02:03:06.186Z,18.00
2022-09-06T02:05:59.225Z,18.00
2022-09-06T02:08:32.337Z,18.00
2022-09-06T02:11:05.100Z,18.00
2022-09-06T02:13:58.365Z,18.10
2022-09-06T02:16:27.876Z,18.10
2022-09-06T02:19:03.382Z,18.10
2022-09-06T02:21:34.998Z,18.10
2022-09-06T02:24:07.337Z,18.20
2022-09-06T02:26:37.978Z,18.20
2022-09-06T02:29:04.987Z,18.30
2022-09-06T02:31:53.300Z,18.30
2022-09-06T02:34:21.042Z,18.40
2022-09-06T02:36:48.094Z,18.50
2022-09-06T02:39:14.831Z,18.50
2022-09-06T02:41:44.252Z,18.60
2022-09-06T02:44:10.967Z,18.70
2022-09-06T02:46:37.654Z,18.70
2022-09-06T02:49:05.081Z,18.70
2022-09-06T02:51:37.395Z,18.80
2022-09-06T02:54:04.291Z,18.80
2022-09-06T02:56:31.312Z,18.90
2022-09-06T02:58:58.531Z,18.90
2022-09-06T03:01:25.422Z,18.90
2022-09-06T03:03:52.212Z,18.90
2022-09-06T03:06:18.907Z,18.90
2022-09-06T03:08:45.601Z,18.90
2022-09-06T03:11:12.417Z,18.90
2022-09-06T03:13:39.104Z,19.00
2022-09-06T03:16:05.835Z,19.00
2022-09-06T03:18:33.030Z,19.00
2022-09-06T03:21:00.115Z,19.00
2022-09-06T03:23:29.145Z,18.90
2022-09-06T03:25:56.160Z,18.90
2022-09-06T03:28:23.718Z,18.90
2022-09-06T03:30:52.023Z,18.90
2022-09-06T03:33:19.907Z,18.90
2022-09-06T03:35:55.465Z,18.90
2022-09-06T03:38:22.894Z,18.90
2022-09-06T03:40:50.593Z,18.80
2022-09-06T03:43:18.470Z,18.70
2022-09-06T03:45:47.782Z,18.70
2022-09-06T03:48:15.150Z,18.60
2022-09-06T03:50:49.816Z,18.60
2022-09-06T03:53:17.990Z,18.60
2022-09-06T03:55:49.444Z,18.50
2022-09-06T03:58:18.038Z,18.50
2022-09-06T04:00:45.265Z,18.50
2022-09-06T04:03:12.302Z,18.40
2022-09-06T04:05:39.062Z,18.40
2022-09-06T04:08:06.054Z,18.40
2022-09-06T04:10:33.721Z,18.30
2022-09-06T04:13:00.404Z,18.30
2022-09-06T04:15:27.154Z,18.30
2022-09-06T04:17:53.881Z,18.30
2022-09-06T04:20:20.714Z,18.30
2022-09-06T04:22:47.520Z,18.30
2022-09-06T04:25:14.269Z,18.30
2022-09-06T04:27:41.160Z,18.20
2022-09-06T04:30:08.578Z,18.30
2022-09-06T04:32:35.317Z,18.30
2022-09-06T04:35:02.115Z,18.30
2022-09-06T04:37:28.850Z,18.30
2022-09-06T04:39:55.723Z,18.30
2022-09-06T04:42:22.510Z,18.30
2022-09-06T04:44:49.291Z,18.30
2022-09-06T04:47:18.104Z,18.30
2022-09-06T04:49:45.271Z,18.40
2022-09-06T04:52:12.041Z,18.40
2022-09-06T04:54:39.017Z,18.40
2022-09-06T04:57:06.053Z,18.30
2022-09-06T04:59:32.879Z,18.30
2022-09-06T05:01:59.842Z,18.30
2022-09-06T05:04:26.735Z,18.30
2022-09-06T05:07:02.590Z,18.30
2022-09-06T05:09:33.520Z,18.20
2022-09-06T05:12:01.015Z,18.20
2022-09-06T05:14:28.673Z,18.20
2022-09-06T05:16:55.670Z,18.20
2022-09-06T05:19:22.869Z,18.20
2022-09-06T05:22:38.202Z,18.20
2022-09-06T05:25:38.752Z,18.20
2022-09-06T05:28:25.117Z,18.20
2022-09-06T05:30:52.137Z,18.20
2022-09-06T05:33:25.959Z,18.20
2022-09-06T05:35:52.848Z,18.30
2022-09-06T05:38:29.595Z,18.30
2022-09-06T05:41:10.846Z,18.30
2022-09-06T05:43:48.223Z,18.40
2022-09-06T05:46:56.561Z,18.40
2022-09-06T05:49:37.076Z,18.40
2022-09-06T05:52:31.143Z,18.40
2022-09-06T05:55:01.982Z,18.50
2022-09-06T05:57:53.736Z,18.50
2022-09-06T06:00:21.116Z,18.50
2022-09-06T06:02:57.714Z,18.60
2022-09-06T06:05:45.089Z,18.60
2022-09-06T06:08:11.889Z,18.60
2022-09-06T06:10:39.526Z,18.70
2022-09-06T06:13:06.279Z,18.70
2022-09-06T06:15:33.018Z,18.70
2022-09-06T06:17:59.778Z,18.70
2022-09-06T06:20:26.530Z,18.80
2022-09-06T06:22:53.280Z,18.80
2022-09-06T06:25:23.056Z,18.80
2022-09-06T06:27:49.794Z,18.90
2022-09-06T06:30:18.546Z,18.90
2022-09-06T06:32:45.459Z,18.90
2022-09-06T06:35:12.610Z,18.90
2022-09-06T06:37:39.597Z,18.90
2022-09-06T06:40:06.884Z,18.90
2022-09-06T06:42:33.715Z,19.00
2022-09-06T06:45:00.466Z,19.00
2022-09-06T06:47:27.213Z,19.00
2022-09-06T06:49:53.981Z,19.10
2022-09-06T06:52:21.631Z,19.20
2022-09-06T06:54:49.601Z,19.30
2022-09-06T06:57:16.349Z,19.30
2022-09-06T06:59:43.426Z,19.40
2022-09-06T07:02:10.306Z,19.40
2022-09-06T07:04:37.466Z,19.50
2022-09-06T07:12:39.445Z,19.60
2022-09-06T07:15:06.785Z,19.70
2022-09-06T07:17:34.608Z,19.70
2022-09-06T07:20:17.124Z,19.80
2022-09-06T07:22:44.079Z,19.80
2022-09-06T07:25:14.455Z,19.80
2022-09-06T07:30:11.757Z,19.80
2022-09-06T07:32:38.488Z,19.80
2022-09-06T07:35:05.777Z,19.80
2022-09-06T07:37:32.737Z,19.80
2022-09-06T07:39:59.523Z,19.90
2022-09-06T07:42:26.318Z,19.90
2022-09-06T07:44:54.111Z,19.90
2022-09-06T07:53:14.108Z,19.90
2022-09-06T07:55:41.846Z,20.00
2022-09-06T07:58:08.589Z,20.00
2022-09-06T08:00:35.380Z,20.00
2022-09-06T08:03:02.229Z,20.10
2022-09-06T08:11:03.063Z,20.20
2022-09-06T08:13:29.903Z,20.20
2022-09-06T08:16:05.367Z,20.30
2022-09-06T08:18:32.475Z,20.30
2022-09-06T08:21:14.912Z,20.40
2022-09-06T08:23:47.215Z,20.40
2022-09-06T08:26:15.520Z,20.50
2022-09-06T08:28:42.395Z,20.50
2022-09-06T08:31:11.614Z,20.50
2022-09-06T08:33:39.632Z,20.60
2022-09-06T08:36:07.290Z,20.60
2022-09-06T08:38:34.664Z,20.70
2022-09-06T08:41:25.521Z,20.80
2022-09-06T08:46:55.988Z,20.90
2022-09-06T08:49:24.673Z,20.90
2022-09-06T08:52:06.358Z,21.00
2022-09-06T08:54:40.074Z,21.10
2022-09-06T08:57:24.153Z,21.10
2022-09-06T08:59:56.511Z,21.20
2022-09-06T09:02:23.406Z,21.40
2022-09-06T09:05:04.609Z,21.50
2022-09-06T09:07:45.186Z,21.60
2022-09-06T09:10:24.587Z,21.80
2022-09-06T09:12:51.385Z,21.90
2022-09-06T09:15:20.654Z,22.10
2022-09-06T09:17:50.590Z,22.20
2022-09-06T09:20:17.478Z,22.30
2022-09-06T09:22:44.795Z,22.40
2022-09-06T09:25:21.343Z,22.40
2022-09-06T09:27:57.195Z,22.50
2022-09-06T09:30:47.650Z,22.60
2022-09-06T09:33:33.256Z,22.60
2022-09-06T09:36:02.914Z,22.60
2022-09-06T09:38:33.457Z,22.70
2022-09-06T09:41:06.898Z,22.70
2022-09-06T09:43:38.124Z,22.80
2022-09-06T09:46:24.492Z,22.80
2022-09-06T09:49:13.078Z,22.90
2022-09-06T09:51:42.627Z,23.00
2022-09-06T09:54:14.779Z,23.00
2022-09-06T09:56:44.626Z,23.10
2022-09-06T09:59:40.187Z,23.10
2022-09-06T10:02:43.211Z,23.20
2022-09-06T10:05:12.962Z,23.40
2022-09-06T10:07:44.146Z,23.60
2022-09-06T10:10:20.886Z,23.70
2022-09-06T10:12:48.066Z,23.80
2022-09-06T10:15:34.799Z,23.80
2022-09-06T10:18:01.667Z,23.90
2022-09-06T10:20:46.866Z,24.00
2022-09-06T10:26:28.179Z,24.20
2022-09-06T10:29:05.517Z,24.20
2022-09-06T10:31:57.029Z,24.20
2022-09-06T10:34:55.267Z,24.20
2022-09-06T10:37:40.350Z,24.20
2022-09-06T10:40:10.189Z,24.20
2022-09-06T10:42:50.255Z,24.20
2022-09-06T10:45:26.021Z,24.20
2022-09-06T10:47:57.929Z,24.20
2022-09-06T10:50:48.068Z,24.20
2022-09-06T10:53:36.763Z,24.30
2022-09-06T10:56:06.173Z,24.30
2022-09-06T11:01:47.829Z,24.40
2022-09-06T11:04:32.259Z,24.40
2022-09-06T11:07:03.885Z,24.40
2022-09-06T11:09:50.939Z,24.40
2022-09-06T11:12:43.941Z,24.40
2022-09-06T11:15:14.072Z,24.50
2022-09-06T11:17:49.325Z,24.50
2022-09-06T11:20:32.506Z,24.40
2022-09-06T11:23:18.022Z,24.40
2022-09-06T11:25:50.953Z,24.40
2022-09-06T11:28:40.052Z,24.40
2022-09-06T11:34:06.854Z,24.40
2022-09-06T11:36:35.848Z,24.40
2022-09-06T11:39:05.353Z,24.50
2022-09-06T11:41:39.929Z,24.40
2022-09-06T11:44:08.934Z,24.40
2022-09-06T11:46:35.737Z,24.40
2022-09-06T11:49:04.485Z,24.40
2022-09-06T11:51:38.646Z,24.50
2022-09-06T11:54:12.964Z,24.50
2022-09-06T11:56:42.699Z,24.60
2022-09-06T11:59:27.356Z,24.70
2022-09-06T12:02:02.839Z,24.70
2022-09-06T12:05:00.937Z,24.80
2022-09-06T12:07:29.461Z,24.90
2022-09-06T12:09:56.579Z,24.90
2022-09-06T12:12:49.124Z,25.00
2022-09-06T12:15:26.340Z,25.10
2022-09-06T12:17:53.463Z,25.20
2022-09-06T12:20:47.822Z,25.20
2022-09-06T12:23:50.417Z,25.30
2022-09-06T12:26:55.549Z,25.40
2022-09-06T12:29:26.056Z,25.50
2022-09-06T12:31:58.477Z,25.60
2022-09-06T12:34:29.485Z,25.70
2022-09-06T12:37:09.154Z,25.80
2022-09-06T12:39:36.071Z,25.90
2022-09-06T12:42:06.494Z,25.90
2022-09-06T12:44:42.023Z,26.00
2022-09-06T12:47:29.173Z,26.00
2022-09-06T12:50:17.794Z,26.10
2022-09-06T12:52:49.313Z,26.20
2022-09-06T12:55:20.910Z,26.20
2022-09-06T12:57:51.518Z,26.40
2022-09-06T13:00:19.397Z,26.50
2022-09-06T13:02:58.289Z,26.40
2022-09-06T13:05:26.788Z,26.40
2022-09-06T13:07:55.793Z,26.40
2022-09-06T13:10:25.584Z,26.30
2022-09-06T13:12:53.366Z,26.20
2022-09-06T13:15:27.792Z,26.20
2022-09-06T13:18:16.569Z,26.10
2022-09-06T13:20:43.664Z,26.00
2022-09-06T13:23:13.113Z,25.80
2022-09-06T13:25:50.630Z,25.70
2022-09-06T13:28:43.800Z,25.50
2022-09-06T13:31:21.573Z,25.40
2022-09-06T13:33:58.812Z,25.30
2022-09-06T13:36:30.983Z,25.20
2022-09-06T13:38:59.161Z,25.20
2022-09-06T13:41:25.881Z,25.00
2022-09-06T13:44:06.093Z,25.10
2022-09-06T13:46:33.336Z,25.00
2022-09-06T13:49:00.388Z,25.00
2022-09-06T13:51:27.729Z,25.00
2022-09-06T13:54:10.548Z,25.10
2022-09-06T13:56:39.207Z,25.10
2022-09-06T13:59:06.954Z,25.20
2022-09-06T14:01:34.320Z,25.30
2022-09-06T14:04:01.451Z,25.30
2022-09-06T14:06:28.184Z,25.40
2022-09-06T14:09:10.673Z,25.40
2022-09-06T14:11:37.894Z,25.40
2022-09-06T14:14:04.846Z,25.50
2022-09-06T14:16:33.164Z,25.60
2022-09-06T14:18:59.961Z,25.60
2022-09-06T14:21:26.970Z,25.70
2022-09-06T14:23:53.996Z,25.80
2022-09-06T14:26:22.337Z,25.80
2022-09-06T14:28:49.948Z,26.00
2022-09-06T14:31:23.409Z,26.10
2022-09-06T14:33:50.329Z,26.30
2022-09-06T14:36:19.164Z,26.40
2022-09-06T14:38:47.397Z,26.60
2022-09-06T14:41:15.394Z,26.70
2022-09-06T14:43:43.582Z,26.70
2022-09-06T14:46:15.104Z,26.70
2022-09-06T14:48:43.007Z,26.80
2022-09-06T14:51:21.930Z,26.90
2022-09-06T14:53:51.327Z,27.00
2022-09-06T14:56:18.564Z,27.10
2022-09-06T14:58:46.583Z,27.10
2022-09-06T15:01:16.969Z,27.00
2022-09-06T15:03:48.716Z,27.00
2022-09-06T15:06:16.237Z,27.10
2022-09-06T15:08:43.282Z,27.00
2022-09-06T15:11:12.179Z,27.00
2022-09-06T15:13:40.463Z,26.90
2022-09-06T15:16:09.487Z,26.90
2022-09-06T15:18:36.581Z,26.80
2022-09-06T15:21:16.102Z,26.60
2022-09-06T15:23:43.929Z,26.40
2022-09-06T15:26:12.203Z,26.30
2022-09-06T15:28:39.955Z,26.20
2022-09-06T15:31:08.241Z,26.10
2022-09-06T15:33:36.692Z,26.00
2022-09-06T15:36:08.889Z,25.80
2022-09-06T15:38:42.907Z,25.80
2022-09-06T15:41:12.008Z,25.70
2022-09-06T15:43:42.610Z,25.70
2022-09-06T15:46:10.016Z,25.60
2022-09-06T15:48:42.960Z,25.60
2022-09-06T15:51:11.902Z,25.60
2022-09-06T15:53:38.825Z,25.60
2022-09-06T15:56:07.488Z,25.60
2022-09-06T15:58:34.276Z,25.60
2022-09-06T16:01:10.160Z,25.60
2022-09-06T16:03:40.322Z,25.60
2022-09-06T16:06:26.183Z,25.70
2022-09-06T16:09:03.595Z,25.60
2022-09-06T16:11:32.678Z,25.70
2022-09-06T16:13:59.478Z,25.70
2022-09-06T16:16:26.655Z,25.70
2022-09-06T16:18:53.463Z,25.80
2022-09-06T16:21:24.415Z,25.90
2022-09-06T16:23:56.507Z,25.90
2022-09-06T16:26:25.501Z,26.00
2022-09-06T16:28:53.634Z,26.00
2022-09-06T16:31:21.983Z,26.20
2022-09-06T16:33:49.214Z,26.30
2022-09-06T16:36:17.125Z,26.50
2022-09-06T16:38:44.319Z,26.60
2022-09-06T16:41:26.907Z,26.70
2022-09-06T16:43:53.951Z,26.90
2022-09-06T16:46:23.062Z,26.90
2022-09-06T16:48:53.985Z,27.00
2022-09-06T16:51:22.207Z,27.00
2022-09-06T16:53:49.585Z,27.00
2022-09-06T16:56:19.189Z,27.00
2022-09-06T16:58:51.637Z,26.90
2022-09-06T17:01:19.604Z,26.80
2022-09-06T17:03:47.589Z,26.80
2022-09-06T17:06:14.730Z,26.80
2022-09-06T17:08:42.174Z,26.70
2022-09-06T17:11:14.995Z,26.70
2022-09-06T17:13:43.352Z,26.60
2022-09-06T17:16:29.210Z,26.50
2022-09-06T17:18:56.058Z,26.40
2022-09-06T17:21:24.235Z,26.30
2022-09-06T17:23:52.075Z,26.20
2022-09-06T17:26:21.130Z,26.10
2022-09-06T17:28:49.651Z,26.00
2022-09-06T17:31:22.268Z,25.80
2022-09-06T17:33:50.759Z,25.70
2022-09-06T17:36:23.703Z,25.60
2022-09-06T17:38:53.343Z,25.50
2022-09-06T17:41:22.211Z,25.40
2022-09-06T17:43:49.021Z,25.30
2022-09-06T17:46:16.426Z,25.20
2022-09-06T17:48:43.567Z,25.10
2022-09-06T17:51:11.839Z,25.00
2022-09-06T17:53:39.167Z,24.90
2022-09-06T17:56:08.093Z,24.80
2022-09-06T17:58:36.656Z,24.70
2022-09-06T18:01:05.353Z,24.60
2022-09-06T18:03:34.863Z,24.50
2022-09-06T18:06:13.543Z,24.40
2022-09-06T18:08:43.486Z,24.40
2022-09-06T18:11:20.810Z,24.20
2022-09-06T18:13:48.285Z,24.20
2022-09-06T18:16:15.259Z,24.10
2022-09-06T18:18:42.422Z,24.00
2022-09-06T18:21:09.221Z,23.90
2022-09-06T18:23:36.233Z,23.80
2022-09-06T18:26:06.263Z,23.80
2022-09-06T18:28:35.400Z,23.70
2022-09-06T18:31:07.809Z,23.60
2022-09-06T18:33:36.206Z,23.50
2022-09-06T18:36:04.773Z,23.50
2022-09-06T18:38:31.542Z,23.40
2022-09-06T18:41:03.186Z,23.40
2022-09-06T18:43:36.306Z,23.30
2022-09-06T18:46:03.609Z,23.30
2022-09-06T18:48:33.803Z,23.20
2022-09-06T18:51:08.907Z,23.20
2022-09-06T18:53:36.239Z,23.10
2022-09-06T18:56:03.074Z,23.10
2022-09-06T18:58:30.300Z,23.10
2022-09-06T19:01:04.437Z,23.00
2022-09-06T19:03:32.285Z,23.00
2022-09-06T19:06:14.098Z,23.00
2022-09-06T19:08:41.408Z,23.00
2022-09-06T19:11:10.708Z,22.90
2022-09-06T19:13:41.453Z,22.90
2022-09-06T19:16:09.833Z,22.80
2022-09-06T19:18:37.532Z,22.80
2022-09-06T19:21:07.078Z,22.70
2022-09-06T19:23:36.992Z,22.70
2022-09-06T19:26:09.946Z,22.70
2022-09-06T19:28:38.262Z,22.60
2022-09-06T19:31:13.340Z,22.60
2022-09-06T19:33:41.450Z,22.50
2022-09-06T19:36:11.854Z,22.50
2022-09-06T19:39:02.177Z,22.40
2022-09-06T19:41:28.013Z,22.40
2022-09-06T19:43:56.431Z,22.30
2022-09-06T19:46:23.606Z,22.30
2022-09-06T19:48:52.212Z,22.20
2022-09-06T19:51:20.242Z,22.20
2022-09-06T19:53:53.155Z,22.10
2022-09-06T19:56:40.289Z,22.10
2022-09-06T19:59:09.257Z,22.00
2022-09-06T20:01:37.752Z,22.00
2022-09-06T20:04:08.018Z,21.90
2022-09-06T20:06:35.589Z,21.90
2022-09-06T20:09:04.951Z,21.90
2022-09-06T20:15:27.365Z,21.80
2022-09-06T20:18:22.826Z,21.70
2022-09-06T20:21:17.750Z,21.70
2022-09-06T20:24:23.699Z,21.70
2022-09-06T20:26:58.518Z,21.60
2022-09-06T20:29:25.498Z,21.60
2022-09-06T20:32:01.367Z,21.50
2022-09-06T20:35:23.342Z,21.50
2022-09-06T20:37:55.125Z,21.50
2022-09-06T20:40:23.782Z,21.40
2022-09-06T20:43:45.181Z,21.40
2022-09-06T20:46:21.280Z,21.30
2022-09-06T20:49:47.661Z,21.30
2022-09-06T20:52:25.059Z,21.20
2022-09-06T20:55:19.117Z,21.20
2022-09-06T21:02:06.284Z,21.20
2022-09-06T21:04:33.181Z,21.10
2022-09-06T21:07:00.232Z,21.10
2022-09-06T21:09:27.278Z,21.10
2022-09-06T21:11:54.275Z,21.10
2022-09-06T21:14:21.214Z,21.10
2022-09-06T21:16:48.011Z,21.10
2022-09-06T21:19:14.772Z,21.10
2022-09-06T21:21:41.841Z,21.10
2022-09-06T21:24:10.199Z,21.10
2022-09-06T21:26:37.900Z,21.00
2022-09-06T21:29:05.213Z,21.00
2022-09-06T21:31:33.683Z,21.00
2022-09-06T21:34:04.944Z,21.00
2022-09-06T21:36:34.042Z,21.00
2022-09-06T21:39:03.908Z,21.00
2022-09-06T21:41:31.291Z,20.90
2022-09-06T21:43:59.742Z,20.90
2022-09-06T21:46:32.621Z,20.90
2022-09-06T21:49:19.006Z,20.90
2022-09-06T21:51:45.731Z,20.90
2022-09-06T21:54:12.582Z,20.90
2022-09-06T21:56:40.165Z,20.90
2022-09-06T21:59:07.776Z,20.90
2022-09-06T22:01:36.073Z,20.90
2022-09-06T22:04:03.820Z,20.90
2022-09-06T22:06:32.524Z,20.90
2022-09-06T22:09:01.381Z,20.80
2022-09-06T22:11:30.588Z,20.80
2022-09-06T22:14:03.244Z,20.80
2022-09-06T22:16:32.368Z,20.80
2022-09-06T22:18:59.427Z,20.70
2022-09-06T22:21:26.480Z,20.70
2022-09-06T22:23:54.269Z,20.70
2022-09-06T22:26:21.948Z,20.70
2022-09-06T22:28:53.469Z,20.70
2022-09-06T22:31:20.569Z,20.70
2022-09-06T22:33:47.625Z,20.70
2022-09-06T22:36:14.411Z,20.70
2022-09-06T22:38:41.194Z,20.70
2022-09-06T22:41:09.318Z,20.70
2022-09-06T22:43:36.124Z,20.70
2022-09-06T22:46:08.734Z,20.70
2022-09-06T22:48:36.268Z,20.70
2022-09-06T22:51:04.240Z,20.70
2022-09-06T22:53:31.696Z,20.70
2022-09-06T22:55:58.943Z,20.70
2022-09-06T22:58:29.628Z,20.70
2022-09-06T23:00:57.274Z,20.70
2022-09-06T23:03:24.183Z,20.80
2022-09-06T23:05:50.992Z,20.80
2022-09-06T23:08:17.770Z,20.80
2022-09-06T23:10:44.662Z,20.80
2022-09-06T23:13:11.677Z,20.80
2022-09-06T23:15:40.923Z,20.90
2022-09-06T23:18:08.353Z,20.90
2022-09-06T23:20:36.917Z,20.90
2022-09-06T23:23:04.723Z,20.90
2022-09-06T23:25:31.552Z,20.90
2022-09-06T23:27:59.616Z,20.90
2022-09-06T23:30:26.638Z,20.90
2022-09-06T23:32:53.419Z,20.90
2022-09-06T23:35:20.175Z,20.90
2022-09-06T23:37:51.110Z,20.90
2022-09-06T23:40:19.552Z,20.90
2022-09-06T23:42:47.267Z,20.90
2022-09-06T23:45:14.189Z,20.90
2022-09-06T23:47:41.570Z,20.90
2022-09-06T23:50:09.064Z,20.90
2022-09-06T23:52:35.916Z,21.00
2022-09-06T23:55:03.155Z,21.00
2022-09-06T23:57:30.110Z,20.90
2022-09-06T23:59:56.874Z,21.00
